地図

経路データ

SID SEASON NUMBER BASIN SUBBASIN NAME ISO_TIME NATURE LAT LON WMO_WIND WMO_PRES WMO_AGENCY TRACK_TYPE DIST2LAND LANDFALL IFLAG USA_AGENCY USA_ATCF_ID USA_LAT USA_LON USA_RECORD USA_STATUS USA_WIND USA_PRES USA_SSHS USA_R34_NE USA_R34_SE USA_R34_SW USA_R34_NW USA_R50_NE USA_R50_SE USA_R50_SW USA_R50_NW USA_R64_NE USA_R64_SE USA_R64_SW USA_R64_NW USA_POCI USA_ROCI USA_RMW USA_EYE TOKYO_LAT TOKYO_LON TOKYO_GRADE TOKYO_WIND TOKYO_PRES TOKYO_R50_DIR TOKYO_R50_LONG TOKYO_R50_SHORT TOKYO_R30_DIR TOKYO_R30_LONG TOKYO_R30_SHORT TOKYO_LAND CMA_LAT CMA_LON CMA_CAT CMA_WIND CMA_PRES HKO_LAT HKO_LON HKO_CAT HKO_WIND HKO_PRES NEWDELHI_LAT NEWDELHI_LON NEWDELHI_GRADE NEWDELHI_WIND NEWDELHI_PRES NEWDELHI_CI NEWDELHI_DP NEWDELHI_POCI REUNION_LAT REUNION_LON REUNION_TYPE REUNION_WIND REUNION_PRES REUNION_TNUM REUNION_CI REUNION_RMW REUNION_R34_NE REUNION_R34_SE REUNION_R34_SW REUNION_R34_NW REUNION_R50_NE REUNION_R50_SE REUNION_R50_SW REUNION_R50_NW REUNION_R64_NE REUNION_R64_SE REUNION_R64_SW REUNION_R64_NW BOM_LAT BOM_LON BOM_TYPE BOM_WIND BOM_PRES BOM_TNUM BOM_CI BOM_RMW BOM_R34_NE BOM_R34_SE BOM_R34_SW BOM_R34_NW BOM_R50_NE BOM_R50_SE BOM_R50_SW BOM_R50_NW BOM_R64_NE BOM_R64_SE BOM_R64_SW BOM_R64_NW BOM_ROCI BOM_POCI BOM_EYE BOM_POS_METHOD BOM_PRES_METHOD NADI_LAT NADI_LON NADI_CAT NADI_WIND NADI_PRES WELLINGTON_LAT WELLINGTON_LON WELLINGTON_WIND WELLINGTON_PRES DS824_LAT DS824_LON DS824_STAGE DS824_WIND DS824_PRES TD9636_LAT TD9636_LON TD9636_STAGE TD9636_WIND TD9636_PRES TD9635_LAT TD9635_LON TD9635_WIND TD9635_PRES TD9635_ROCI NEUMANN_LAT NEUMANN_LON NEUMANN_CLASS NEUMANN_WIND NEUMANN_PRES MLC_LAT MLC_LON MLC_CLASS MLC_WIND MLC_PRES USA_GUST BOM_GUST BOM_GUST_PER REUNION_GUST REUNION_GUST_PER USA_SEAHGT USA_SEARAD_NE USA_SEARAD_SE USA_SEARAD_SW USA_SEARAD_NW STORM_SPEED STORM_DIR
2001247N15237 2001 56 EP MM GIL 2001-09-04 06:00:00 TS 15.4000 -122.600 30 1006 hurdat_epa main 1510 1510 O_____________ hurdat_epa EP082001 15.4000 -122.600 TD 30 1006 -1 1009 125 30 7 270
2001247N15237 2001 56 EP MM GIL 2001-09-04 09:00:00 TS 15.4000 -122.988 main 1540 1540 P_____________ EP082001 15.4000 -122.988 TD 32 1005 -1 1009 137 37 8 270
2001247N15237 2001 56 EP MM GIL 2001-09-04 12:00:00 TS 15.4000 -123.400 35 1004 hurdat_epa main 1570 1570 O_____________ hurdat_epa EP082001 15.4000 -123.400 TS 35 1004 0 1010 150 45 8 270
2001247N15237 2001 56 EP MM GIL 2001-09-04 15:00:00 TS 15.4001 -123.838 main 1602 1602 P_____________ EP082001 15.4001 -123.838 TS 37 1003 0 1010 150 45 8 270
2001247N15237 2001 56 EP MM GIL 2001-09-04 18:00:00 TS 15.4000 -124.200 40 1002 hurdat_epa main 1633 1633 O_____________ hurdat_epa EP082001 15.4000 -124.200 TS 40 1002 0 50 50 75 90 1010 150 45 5 270
2001247N15237 2001 56 EP MM GIL 2001-09-04 21:00:00 TS 15.3999 -124.395 main 1649 1649 P_____________ EP082001 15.3999 -124.395 TS 45 999 0 75 75 87 95 1010 150 37 3 270
2001247N15237 2001 56 EP MM GIL 2001-09-05 00:00:00 TS 15.4000 -124.500 50 997 hurdat_epa main 1657 1657 O_____________ hurdat_epa EP082001 15.4000 -124.500 TS 50 997 0 100 100 100 100 1010 150 30 2 272
2001247N15237 2001 56 EP MM GIL 2001-09-05 03:00:00 TS 15.4075 -124.600 main 1665 1665 P_____________ EP082001 15.4075 -124.600 TS 52 995 0 100 100 100 100 1010 150 30 2 270
2001247N15237 2001 56 EP MM GIL 2001-09-05 06:00:00 TS 15.4000 -124.700 55 994 hurdat_epa main 1674 1674 O_____________ hurdat_epa EP082001 15.4000 -124.700 TS 55 994 0 100 100 100 100 1010 150 30 2 257
2001247N15237 2001 56 EP MM GIL 2001-09-05 09:00:00 TS 15.3575 -124.828 main 1682 1682 P_____________ EP082001 15.3575 -124.828 TS 55 994 0 100 100 100 100 1010 150 27 3 251
2001247N15237 2001 56 EP MM GIL 2001-09-05 12:00:00 TS 15.3000 -125.000 55 994 hurdat_epa main 1705 1705 O_____________ hurdat_epa EP082001 15.3000 -125.000 TS 55 994 0 100 100 100 100 1010 150 25 4 255
2001247N15237 2001 56 EP MM GIL 2001-09-05 15:00:00 TS 15.2500 -125.235 main 1722 1722 P_____________ EP082001 15.2500 -125.235 TS 57 992 0 80 80 80 95 1010 150 25 5 258
2001247N15237 2001 56 EP MM GIL 2001-09-05 18:00:00 TS 15.2000 -125.500 60 990 hurdat_epa main 1753 1753 O_____________ hurdat_epa EP082001 15.2000 -125.500 TS 60 990 0 60 60 60 90 1010 150 25 5 258
2001247N15237 2001 56 EP MM GIL 2001-09-05 21:00:00 TS 15.1425 -125.750 main 1785 1785 P_____________ EP082001 15.1425 -125.750 TS 62 988 0 60 60 60 75 1010 150 22 5 258
2001247N15237 2001 56 EP MM GIL 2001-09-06 00:00:00 TS 15.1000 -126.000 65 986 hurdat_epa main 1802 1802 O_____________ hurdat_epa EP082001 15.1000 -126.000 HU 65 986 1 60 60 60 60 1010 150 20 5 265
2001247N15237 2001 56 EP MM GIL 2001-09-06 03:00:00 TS 15.0999 -126.227 main 1819 1819 P_____________ EP082001 15.0999 -126.227 HU 67 984 1 60 60 60 60 1010 150 17 5 270
2001247N15237 2001 56 EP MM GIL 2001-09-06 06:00:00 TS 15.1000 -126.500 70 983 hurdat_epa main 1841 1841 O_____________ hurdat_epa EP082001 15.1000 -126.500 HU 70 983 1 60 60 60 60 1010 150 15 6 266
2001247N15237 2001 56 EP MM GIL 2001-09-06 09:00:00 TS 15.0576 -126.885 main 1868 1868 P_____________ EP082001 15.0576 -126.885 HU 72 981 1 80 80 80 80 1010 150 15 8 263
2001247N15237 2001 56 EP MM GIL 2001-09-06 12:00:00 TS 15.0000 -127.300 75 979 hurdat_epa main 1904 1904 O_____________ hurdat_epa EP082001 15.0000 -127.300 HU 75 979 1 100 100 100 100 1010 150 15 8 260
2001247N15237 2001 56 EP MM GIL 2001-09-06 15:00:00 TS 14.9275 -127.673 main 1940 1940 P_____________ EP082001 14.9275 -127.673 HU 80 977 1 100 100 100 100 1010 150 15 7 262
2001247N15237 2001 56 EP MM GIL 2001-09-06 18:00:00 TS 14.9000 -128.000 85 975 hurdat_epa main 1961 1961 O_____________ hurdat_epa EP082001 14.9000 -128.000 HU 85 975 2 100 100 100 100 1010 150 15 6 274
2001247N15237 2001 56 EP MM GIL 2001-09-06 21:00:00 TS 14.9700 -128.287 main 1974 1973 P_____________ EP082001 14.9700 -128.287 HU 85 975 2 100 100 100 100 1009 150 15 5 292
2001247N15237 2001 56 EP MM GIL 2001-09-07 00:00:00 TS 15.1000 -128.500 85 975 hurdat_epa main 1980 1980 O_____________ hurdat_epa EP082001 15.1000 -128.500 HU 85 975 2 100 100 100 100 1008 150 15 4 310
2001247N15237 2001 56 EP MM GIL 2001-09-07 03:00:00 TS 15.2274 -128.608 main 1980 1971 P_____________ EP082001 15.2274 -128.608 HU 85 975 2 100 162 100 100 1008 150 15 4 327
2001247N15237 2001 56 EP MM GIL 2001-09-07 06:00:00 TS 15.4000 -128.700 85 975 hurdat_epa main 1971 1962 O_____________ hurdat_epa EP082001 15.4000 -128.700 HU 85 975 2 100 225 100 100 1008 150 15 5 326
2001247N15237 2001 56 EP MM GIL 2001-09-07 09:00:00 TS 15.6275 -128.885 main 1969 1961 P_____________ EP082001 15.6275 -128.885 HU 82 977 1 100 225 162 100 1008 150 15 6 322
2001247N15237 2001 56 EP MM GIL 2001-09-07 12:00:00 TS 15.9000 -129.100 80 979 hurdat_epa main 1961 1952 O_____________ hurdat_epa EP082001 15.9000 -129.100 HU 80 979 1 100 225 225 100 1008 150 15 7 322
2001247N15237 2001 56 EP MM GIL 2001-09-07 15:00:00 TS 16.1700 -129.330 main 1952 1945 P_____________ EP082001 16.1700 -129.330 HU 77 979 1 100 162 172 80 1008 150 15 7 327
2001247N15237 2001 56 EP MM GIL 2001-09-07 18:00:00 TS 16.5000 -129.500 75 979 hurdat_epa main 1945 1915 O_____________ hurdat_epa EP082001 16.5000 -129.500 HU 75 979 1 100 100 120 60 1008 150 15 7 347
2001247N15237 2001 56 EP MM GIL 2001-09-07 21:00:00 TS 16.8900 -129.508 main 1915 1878 P_____________ EP082001 16.8900 -129.508 HU 70 983 1 100 100 120 60 1008 175 15 9 0
2001247N15237 2001 56 EP MM GIL 2001-09-08 00:00:00 TS 17.4000 -129.500 65 987 hurdat_epa main 1878 1844 O_____________ hurdat_epa EP082001 17.4000 -129.500 HU 65 987 1 100 100 120 60 1009 200 15 12 355
2001247N15237 2001 56 EP MM GIL 2001-09-08 03:00:00 TS 18.0325 -129.613 main 1844 1806 P_____________ EP082001 18.0325 -129.613 HU 62 988 0 100 100 110 60 1009 200 15 14 348
2001247N15237 2001 56 EP MM GIL 2001-09-08 06:00:00 TS 18.8000 -129.800 60 990 hurdat_epa main 1806 1764 O_____________ hurdat_epa EP082001 18.8000 -129.800 TS 60 990 0 100 100 100 60 1009 200 15 17 349
2001247N15237 2001 56 EP MM GIL 2001-09-08 09:00:00 TS 19.6918 -129.939 main 1757 1737 P_____________ EP082001 19.6918 -129.939 TS 55 993 0 100 100 87 60 1009 175 15 19 345
2001247N15237 2001 56 EP MM GIL 2001-09-08 12:00:00 TS 20.6000 -130.300 50 997 hurdat_epa main 1740 1734 O_____________ hurdat_epa EP082001 20.6000 -130.300 TS 50 997 0 100 100 75 60 1009 150 15 21 329
2001247N15237 2001 56 EP MM GIL 2001-09-08 15:00:00 TS 21.4623 -131.056 main 1766 1766 P_____________ EP082001 21.4623 -131.056 TS 45 1000 0 110 110 67 60 1009 150 17 23 312
2001247N15237 2001 56 EP MM GIL 2001-09-08 18:00:00 TS 22.1000 -132.100 40 1003 hurdat_epa main 1778 1775 O_____________ hurdat_epa EP082001 22.1000 -132.100 TS 40 1003 0 120 120 60 60 1010 150 20 23 295
2001247N15237 2001 56 EP MM GIL 2001-09-08 21:00:00 TS 22.4310 -133.307 main 1829 1829 P_____________ EP082001 22.4310 -133.307 TS 35 1004 0 60 60 30 30 1010 135 25 22 278
2001247N15237 2001 56 EP MM GIL 2001-09-09 00:00:00 TS 22.4000 -134.500 30 1006 hurdat_epa main 1910 1910 O_____________ hurdat_epa EP082001 22.4000 -134.500 TD 30 1006 -1 1010 120 30 20 259
2001247N15237 2001 56 EP MM GIL 2001-09-09 03:00:00 TS 22.0318 -135.457 main 2013 1948 P_____________ EP082001 22.0318 -135.457 TD 30 1007 -1 1010 120 30 18 240
2001247N15237 2001 56 EP MM GIL 2001-09-09 06:00:00 TS 21.5000 -136.200 30 1008 hurdat_epa main 1948 1884 O_____________ hurdat_epa EP082001 21.5000 -136.200 TD 30 1008 -1 1010 120 30 16 231
2001247N15237 2001 56 EP MM GIL 2001-09-09 09:00:00 TS 21.0321 -136.805 main 1884 1841 P_____________ EP082001 21.0321 -136.805 TD 30 1008 -1 1010 120 30 12 229
2001247N15237 2001 56 EP MM GIL 2001-09-09 12:00:00 TS 20.7000 -137.200 30 1008 hurdat_epa main 1841 1820 O_____________ hurdat_epa EP082001 20.7000 -137.200 TD 30 1008 -1 1010 120 30 7 234
2001247N15237 2001 56 EP MM GIL 2001-09-09 15:00:00 TS 20.6226 -137.402 main 1820 1810 P_____________ EP082001 20.6226 -137.402 TD 27 1008 -1 1010 120 30 3 270
2001247N15237 2001 56 EP MM GIL 2001-09-09 18:00:00 TS 20.7000 -137.500 25 1009 hurdat_epa main 1810 O_____________ hurdat_epa EP082001 20.7000 -137.500 TD 25 1009 -1 1010 120 30 2 311

IBTrACS Databaseについて

本データベースは、米国NOAAが公開する1842年以降の世界の熱帯低気圧のベストトラックデータアーカイブInternational Best Track Archive for Climate Stewardship (IBTrACS)を、ウェブで閲覧しやすい形式に変換したものです。

最終更新日:2021-11-26